CheckWX is a tool to help pilots better visualize weather data.  It is not intended as a substitute for an official pre-flight weather briefing.

12:20:13 UTC

KFNB METAR
Brenner Field Airport
Falls City, Nebraska, USA
Current

27 mins ago

KFNB 221153Z AUTO 10009KT 10SM CLR M06/M09 A3023 RMK AO2 SLP248 T10611089 11022 21067 55004
Observed
Feb-22 @ 11:53 UTC
Wind
  • 100° at 9 KTS
Visibility
10 SM
Flight Rules
VFR
Cloud Levels
  • Clear skies
Temperature
-6°C / 21°F
Dewpoint
-9°C / 16°F
Humidity
80%
Altimeter
30.23" Hg
Pressure
1024.8 hPa
Previous

1 hour ago

KFNB 221053Z AUTO 08008KT 10SM CLR M06/M09 A3023 RMK AO2 SLP247 T10611089
Observed
Feb-22 @ 10:53 UTC
Wind
  • 080° at 8 KTS
Visibility
10 SM
Flight Rules
VFR
Cloud Levels
  • Clear skies
Temperature
-6°C / 21°F
Dewpoint
-9°C / 16°F
Humidity
80%
Altimeter
30.23" Hg
Pressure
1024.7 hPa
Previous

2 hours ago

KFNB 220953Z AUTO 09009KT 10SM CLR M06/M08 A3023 RMK AO2 SLP248 T10561083
Observed
Feb-22 @ 09:53 UTC
Wind
  • 090° at 9 KTS
Visibility
10 SM
Flight Rules
VFR
Cloud Levels
  • Clear skies
Temperature
-6°C / 21°F
Dewpoint
-8°C / 18°F
Humidity
86%
Altimeter
30.23" Hg
Pressure
1024.8 hPa